Time;durP1;ratioP1;P1;durP2;ratioP2;P2;SDS_P1;SDS_P2;PMS_P1;PMS_P2;Temp;Humidity;BMP_temperature;BMP_pressure;BME280_temperature;BME280_humidity;BME280_pressure;Samples;Min_cycle;Max_cycle;Signal;HPM_P1;HPM_P2
2022/12/28 00:02:22;;;;;;;9.35;6.63;;;;;;;8.91;nan;96067.06;5048882;28;20210;-61
2022/12/28 00:04:49;;;;;;;7.50;6.85;;;;;;;8.96;nan;96072.91;5049078;28;20212;-60
2022/12/28 00:07:16;;;;;;;8.63;7.45;;;;;;;8.91;nan;96078.00;5048894;28;20217;-60
2022/12/28 00:09:43;;;;;;;7.80;7.20;;;;;;;8.91;nan;96075.47;5049817;28;20279;-60
2022/12/28 00:12:09;;;;;;;7.45;6.82;;;;;;;8.89;nan;96068.78;5048956;28;20307;-60
2022/12/28 00:14:38;;;;;;;7.97;7.28;;;;;;;8.92;nan;96073.78;5048448;28;20210;-63
2022/12/28 00:17:04;;;;;;;7.65;6.95;;;;;;;8.93;nan;96076.28;5048336;28;20671;-62
2022/12/28 00:19:31;;;;;;;7.95;6.85;;;;;;;8.95;nan;96071.22;5046914;28;20201;-62
2022/12/28 00:21:58;;;;;;;8.80;7.60;;;;;;;9.07;nan;96076.16;5047477;28;20653;-61
2022/12/28 00:24:25;;;;;;;8.65;6.97;;;;;;;9.12;nan;96087.94;5049396;28;20676;-61
2022/12/28 00:26:54;;;;;;;7.88;6.43;;;;;;;9.10;nan;96096.41;5048051;28;20794;-60
2022/12/28 00:29:21;;;;;;;5.90;5.50;;;;;;;9.12;nan;96094.69;5049071;28;20247;-60
2022/12/28 00:31:49;;;;;;;6.43;5.88;;;;;;;9.04;nan;96091.41;5048237;28;20217;-61
2022/12/28 00:34:16;;;;;;;6.63;6.05;;;;;;;9.04;nan;96089.72;5048054;28;20217;-61
2022/12/28 00:36:42;;;;;;;6.93;6.35;;;;;;;9.17;nan;96088.69;5048346;28;20208;-60
2022/12/28 00:39:09;;;;;;;7.72;6.93;;;;;;;9.31;nan;96097.84;5049309;28;20736;-63
2022/12/28 00:41:36;;;;;;;6.80;6.30;;;;;;;9.23;nan;96097.94;5048988;28;20267;-61
2022/12/28 00:44:03;;;;;;;7.60;6.80;;;;;;;9.28;nan;96098.72;5047970;28;20205;-62
2022/12/28 00:46:29;;;;;;;8.23;7.57;;;;;;;9.24;nan;96101.31;5049538;28;20282;-61
2022/12/28 00:48:57;;;;;;;12.90;8.60;;;;;;;9.16;nan;96104.75;5049333;28;20860;-60
2022/12/28 00:51:24;;;;;;;10.00;8.80;;;;;;;9.16;nan;96107.31;5048092;28;20561;-61
2022/12/28 00:53:51;;;;;;;9.77;8.88;;;;;;;9.20;nan;96103.03;5049234;28;20213;-60
2022/12/28 00:56:19;;;;;;;9.90;9.00;;;;;;;9.21;nan;96102.19;5049551;28;20323;-59
2022/12/28 00:58:46;;;;;;;11.27;10.18;;;;;;;9.12;nan;96104.84;5049483;28;20210;-61
2022/12/28 01:01:14;;;;;;;10.77;9.63;;;;;;;9.13;nan;96101.47;5048910;28;20206;-60
2022/12/28 01:03:41;;;;;;;12.43;10.02;;;;;;;9.17;nan;96106.44;5049980;28;20586;-60
2022/12/28 01:06:11;;;;;;;12.43;10.32;;;;;;;9.07;nan;96111.66;5048443;28;20234;-60
2022/12/28 01:08:39;;;;;;;10.75;9.80;;;;;;;9.08;nan;96098.13;5049550;28;20205;-61
2022/12/28 01:11:08;;;;;;;13.52;12.05;;;;;;;9.10;nan;96096.41;5047935;28;20821;-59
2022/12/28 01:13:35;;;;;;;11.40;10.30;;;;;;;9.07;nan;96098.97;5049485;28;20205;-61
2022/12/28 01:16:10;;;;;;;14.23;11.50;;;;;;;8.93;nan;96090.66;5048109;28;20205;-60
2022/12/28 01:18:36;;;;;;;12.40;11.18;;;;;;;8.96;nan;96104.16;5048541;28;20225;-61
2022/12/28 01:21:10;;;;;;;14.68;12.13;;;;;;;8.91;nan;96100.00;5048091;28;20249;-62
2022/12/28 01:23:37;;;;;;;15.00;12.80;;;;;;;8.94;nan;96097.41;5048656;28;20205;-62
2022/12/28 01:26:04;;;;;;;16.17;13.88;;;;;;;9.01;nan;96101.56;5048708;28;20230;-60
2022/12/28 01:28:31;;;;;;;15.88;12.38;;;;;;;9.00;nan;96095.66;5048120;28;20206;-60
2022/12/28 01:31:03;;;;;;;15.68;13.43;;;;;;;8.99;nan;96103.28;5047524;28;20209;-60
2022/12/28 01:33:30;;;;;;;13.70;12.25;;;;;;;8.90;nan;96103.41;5048247;28;20226;-64
2022/12/28 01:35:56;;;;;;;16.52;12.77;;;;;;;8.96;nan;96100.78;5047351;28;20242;-59
2022/12/28 01:38:25;;;;;;;14.30;12.80;;;;;;;8.89;nan;96101.72;5047759;28;20792;-60
2022/12/28 01:40:51;;;;;;;15.13;13.10;;;;;;;8.79;nan;96098.44;5047535;28;20217;-60
2022/12/28 01:43:19;;;;;;;16.08;13.48;;;;;;;8.77;nan;96090.84;5048209;28;20308;-60
2022/12/28 01:45:51;;;;;;;15.90;12.75;;;;;;;8.81;nan;96095.03;5047701;28;20221;-63
2022/12/28 01:48:22;;;;;;;15.32;13.18;;;;;;;8.66;nan;96090.09;5048027;28;20228;-60
2022/12/28 01:50:50;;;;;;;14.63;13.13;;;;;;;8.56;nan;96083.44;5046663;28;20210;-60
2022/12/28 01:53:20;;;;;;;15.45;13.82;;;;;;;8.55;nan;96096.13;5048760;28;20202;-60
2022/12/28 01:55:49;;;;;;;16.30;14.38;;;;;;;8.51;nan;96095.31;5047786;28;20206;-60
2022/12/28 01:58:20;;;;;;;16.73;14.55;;;;;;;8.55;nan;96084.31;5048576;28;20202;-60
2022/12/28 02:00:47;;;;;;;16.17;14.45;;;;;;;8.57;nan;96081.75;5047455;28;20209;-60
2022/12/28 02:03:17;;;;;;;16.17;14.48;;;;;;;8.50;nan;96074.22;5048294;28;20205;-61
2022/12/28 02:05:48;;;;;;;19.27;15.18;;;;;;;8.54;nan;96075.03;5047978;28;20930;-62
2022/12/28 02:08:20;;;;;;;20.08;14.75;;;;;;;8.64;nan;96076.63;5047280;28;20201;-60
2022/12/28 02:10:51;;;;;;;16.00;14.13;;;;;;;8.55;nan;96075.88;5047730;28;20206;-60
2022/12/28 02:13:21;;;;;;;17.25;14.57;;;;;;;8.70;nan;96078.22;5047442;28;20201;-60
2022/12/28 02:15:48;;;;;;;19.58;15.25;;;;;;;8.71;nan;96077.38;5047459;28;20691;-61
2022/12/28 02:18:16;;;;;;;17.40;14.45;;;;;;;8.63;nan;96071.56;5047657;28;20212;-60
2022/12/28 02:21:06;;;;;;;16.95;15.02;;;;;;;8.58;nan;96074.16;5046751;28;20249;-61
2022/12/28 02:23:49;;;;;;;17.58;14.57;;;;;;;8.50;nan;96064.06;5048566;28;20202;-60
2022/12/28 02:26:39;;;;;;;17.25;15.13;;;;;;;8.50;nan;96063.22;5048101;28;20240;-61
2022/12/28 02:29:25;;;;;;;19.58;14.63;;;;;;;8.53;nan;96056.44;5046789;28;20221;-60
2022/12/28 02:32:00;;;;;;;17.08;12.60;;;;;;;8.57;nan;96052.19;5046496;28;20217;-61
2022/12/28 02:34:33;;;;;;;17.27;13.43;;;;;;;8.39;nan;96054.91;5047667;28;22625;-61
2022/12/28 02:37:06;;;;;;;17.85;13.45;;;;;;;8.50;nan;96063.22;5046791;28;20720;-61
2022/12/28 02:39:38;;;;;;;17.42;13.32;;;;;;;8.42;nan;96059.91;5047644;28;20682;-60
2022/12/28 02:42:08;;;;;;;14.73;13.13;;;;;;;8.37;nan;96060.00;5045888;28;20206;-61
2022/12/28 02:50:16;;;;;;;16.63;13.55;;;;;;;8.48;nan;96059.88;4998676;28;20209;-60
2022/12/28 02:53:18;;;;;;;18.42;12.75;;;;;;;8.50;nan;96058.16;5047125;28;20206;-61
2022/12/28 02:56:06;;;;;;;16.10;12.68;;;;;;;8.50;nan;96048.03;5046653;28;20229;-62
2022/12/28 02:59:17;;;;;;;16.13;12.25;;;;;;;8.40;nan;96041.41;5045610;28;20213;-60
2022/12/28 03:02:23;;;;;;;13.52;11.80;;;;;;;8.24;nan;96044.88;5030789;28;20198;-59
2022/12/28 03:05:07;;;;;;;14.05;11.18;;;;;;;8.27;nan;96047.38;5034289;28;20612;-60
2022/12/28 03:10:32;;;;;;;10.45;9.45;;;;;;;8.25;nan;96042.31;5045791;28;20270;-59
2022/12/28 03:13:03;;;;;;;11.93;10.32;;;;;;;8.35;nan;96045.66;5046276;28;20206;-60
2022/12/28 03:15:34;;;;;;;11.90;10.45;;;;;;;8.31;nan;96042.28;5047142;28;20208;-60
2022/12/28 03:32:02;;;;;;;9.10;7.95;;;;;;;8.33;nan;96067.63;5045249;28;20815;-59
2022/12/28 03:34:31;;;;;;;9.93;8.32;;;;;;;8.30;nan;96070.16;5047354;28;20226;-59
2022/12/28 03:37:04;;;;;;;7.95;7.15;;;;;;;8.29;nan;96073.53;5046142;28;20197;-60
2022/12/28 03:39:36;;;;;;;8.57;7.72;;;;;;;8.20;nan;96059.25;5046724;28;20218;-60
2022/12/28 03:45:05;;;;;;;9.35;7.72;;;;;;;8.25;nan;96061.75;5046494;28;20388;-59
2022/12/28 03:47:33;;;;;;;7.25;6.55;;;;;;;8.19;nan;96053.34;5046152;28;20225;-59
2022/12/28 03:50:01;;;;;;;7.93;6.57;;;;;;;8.10;nan;96055.13;5046388;28;20202;-58
2022/12/28 03:52:28;;;;;;;6.88;6.28;;;;;;;8.04;nan;96053.47;5049213;28;21059;-61
2022/12/28 03:54:55;;;;;;;8.02;6.32;;;;;;;7.98;nan;96038.31;5050868;28;20221;-59
2022/12/28 03:57:23;;;;;;;6.80;6.25;;;;;;;7.85;nan;96032.53;5050372;28;20210;-59
2022/12/28 03:59:49;;;;;;;8.43;6.13;;;;;;;7.86;nan;96043.50;5050106;28;20206;-59
2022/12/28 04:02:16;;;;;;;6.15;5.65;;;;;;;7.80;nan;96043.53;5049313;28;20209;-60
2022/12/28 04:04:43;;;;;;;7.07;6.47;;;;;;;7.77;nan;96048.63;5050941;28;20212;-59
2022/12/28 04:07:11;;;;;;;6.50;5.93;;;;;;;7.79;nan;96051.97;5050017;28;20225;-59
2022/12/28 04:09:38;;;;;;;6.68;6.00;;;;;;;7.68;nan;96041.06;5051165;28;20202;-60
2022/12/28 04:12:05;;;;;;;7.25;6.40;;;;;;;7.73;nan;96052.00;5049103;28;20220;-59
2022/12/28 04:14:32;;;;;;;7.18;6.10;;;;;;;7.75;nan;96060.44;5049570;28;20237;-59
2022/12/28 04:16:59;;;;;;;7.07;6.38;;;;;;;7.63;nan;96042.81;5050392;28;20205;-60
2022/12/28 04:19:25;;;;;;;6.82;6.32;;;;;;;7.70;nan;96054.56;5049532;28;20266;-60
2022/12/28 04:21:52;;;;;;;5.75;5.25;;;;;;;7.73;nan;96060.44;5048020;28;20244;-60
2022/12/28 04:24:20;;;;;;;6.47;5.60;;;;;;;7.80;nan;96071.38;5050059;28;20209;-59
2022/12/28 04:26:47;;;;;;;6.30;5.80;;;;;;;7.74;nan;96074.78;5050329;28;22171;-59
2022/12/28 04:29:14;;;;;;;5.93;5.43;;;;;;;7.84;nan;96080.63;5050870;28;20201;-60
2022/12/28 04:31:40;;;;;;;5.75;5.28;;;;;;;7.94;nan;96081.38;5048454;28;20209;-60
2022/12/28 04:34:07;;;;;;;5.57;5.18;;;;;;;8.05;nan;96088.06;5049528;28;20233;-61
2022/12/28 04:36:34;;;;;;;6.05;5.45;;;;;;;8.05;nan;96089.75;5047469;28;20760;-60
2022/12/28 04:39:01;;;;;;;6.53;5.28;;;;;;;8.01;nan;96083.88;5049406;28;20709;-60
2022/12/28 04:41:29;;;;;;;8.63;6.05;;;;;;;8.13;nan;96088.03;5048394;28;20270;-60
2022/12/28 04:43:56;;;;;;;6.07;5.57;;;;;;;8.04;nan;96088.91;5049912;28;20210;-60
2022/12/28 04:46:23;;;;;;;6.38;5.95;;;;;;;8.10;nan;96096.47;5048848;28;20205;-60
2022/12/28 04:48:50;;;;;;;7.03;6.32;;;;;;;7.99;nan;96080.50;5049988;28;20209;-59
2022/12/28 04:51:19;;;;;;;6.00;5.40;;;;;;;8.03;nan;96096.53;5049212;28;20667;-60
2022/12/28 04:53:46;;;;;;;5.53;5.18;;;;;;;8.08;nan;96090.59;5049088;28;20202;-59
2022/12/28 04:56:13;;;;;;;5.95;5.45;;;;;;;8.08;nan;96095.66;5050460;28;20210;-60
2022/12/28 04:58:42;;;;;;;5.78;5.28;;;;;;;8.05;nan;96100.72;5049140;28;20910;-57
2022/12/28 05:01:11;;;;;;;5.45;4.95;;;;;;;7.98;nan;96099.09;5048244;28;20206;-59
2022/12/28 05:03:39;;;;;;;6.38;5.80;;;;;;;8.04;nan;96093.16;5048171;28;20210;-60
2022/12/28 05:06:08;;;;;;;8.30;7.60;;;;;;;8.05;nan;96085.53;5048532;28;20579;-59
2022/12/28 05:08:36;;;;;;;7.18;6.57;;;;;;;8.07;nan;96088.06;5048930;28;20226;-60
2022/12/28 05:11:06;;;;;;;6.53;5.85;;;;;;;8.04;nan;96088.91;5048045;28;20210;-60
2022/12/28 05:13:33;;;;;;;7.07;6.45;;;;;;;8.07;nan;96081.31;5047807;28;20266;-60
2022/12/28 05:16:02;;;;;;;9.30;6.43;;;;;;;8.05;nan;96085.53;5048042;28;20793;-59
2022/12/28 05:18:29;;;;;;;9.98;5.85;;;;;;;8.02;nan;96085.56;5047332;28;20207;-60
2022/12/28 05:21:00;;;;;;;5.55;5.03;;;;;;;8.06;nan;96092.28;5046128;28;20229;-59
2022/12/28 05:23:28;;;;;;;5.82;5.32;;;;;;;8.09;nan;96086.38;5047780;28;20747;-61
2022/12/28 05:25:57;;;;;;;9.35;5.45;;;;;;;8.25;nan;96092.97;5047812;28;20189;-60
2022/12/28 05:28:24;;;;;;;7.50;5.88;;;;;;;8.19;nan;96093.84;5047490;28;20225;-59
2022/12/28 05:30:51;;;;;;;6.72;6.13;;;;;;;8.14;nan;96098.13;5046047;28;20224;-60
2022/12/28 05:33:20;;;;;;;6.20;5.70;;;;;;;8.13;nan;96099.00;5048415;28;20270;-61
2022/12/28 05:35:46;;;;;;;6.78;6.18;;;;;;;8.11;nan;96098.16;5047123;28;20211;-61
2022/12/28 05:38:13;;;;;;;6.03;5.43;;;;;;;8.15;nan;96102.34;5047911;28;20730;-61
2022/12/28 05:40:40;;;;;;;5.40;4.97;;;;;;;8.18;nan;96094.72;5047480;28;20198;-61
2022/12/28 05:43:06;;;;;;;5.22;4.80;;;;;;;8.20;nan;96104.81;5046375;28;20216;-60
2022/12/28 05:45:33;;;;;;;5.20;4.78;;;;;;;8.18;nan;96112.44;5048317;28;20216;-62
2022/12/28 05:48:00;;;;;;;5.32;4.85;;;;;;;8.13;nan;96109.13;5049345;28;20226;-60
2022/12/28 05:50:28;;;;;;;6.03;4.65;;;;;;;8.06;nan;96112.53;5048256;28;20671;-60
2022/12/28 05:52:55;;;;;;;5.05;4.65;;;;;;;8.02;nan;96103.28;5046908;28;20209;-60
2022/12/28 05:55:21;;;;;;;4.93;4.53;;;;;;;8.11;nan;96113.34;5046697;28;20691;-61
2022/12/28 05:57:48;;;;;;;4.82;4.38;;;;;;;8.17;nan;96110.75;5047721;28;20682;-61
2022/12/28 06:00:15;;;;;;;4.88;4.47;;;;;;;8.05;nan;96117.59;5048112;28;20621;-60
2022/12/28 06:02:43;;;;;;;5.50;5.03;;;;;;;8.01;nan;96119.31;5048037;28;20255;-61
2022/12/28 06:05:09;;;;;;;6.75;5.55;;;;;;;8.07;nan;96114.22;5047033;28;20224;-60
2022/12/28 06:07:38;;;;;;;5.45;4.53;;;;;;;8.11;nan;96113.34;5048634;28;20233;-61
2022/12/28 06:10:05;;;;;;;6.40;5.80;;;;;;;8.18;nan;96122.56;5048385;28;20205;-62
2022/12/28 06:12:32;;;;;;;5.68;4.97;;;;;;;8.28;nan;96122.50;5047014;28;20423;-63
2022/12/28 06:14:59;;;;;;;6.05;5.45;;;;;;;8.31;nan;96132.63;5047000;28;20205;-60
2022/12/28 06:17:25;;;;;;;5.45;4.90;;;;;;;8.34;nan;96128.41;5047297;28;20202;-60
2022/12/28 06:19:52;;;;;;;5.72;5.25;;;;;;;8.27;nan;96118.28;5047139;28;20227;-59
2022/12/28 06:22:19;;;;;;;5.32;4.93;;;;;;;8.22;nan;96125.06;5046349;28;20680;-60
2022/12/28 06:24:47;;;;;;;5.75;4.45;;;;;;;8.29;nan;96130.09;5048093;28;20214;-60
2022/12/28 06:27:14;;;;;;;5.43;4.93;;;;;;;8.38;nan;96126.69;5047115;28;22016;-61
2022/12/28 06:29:41;;;;;;;8.07;6.38;;;;;;;8.41;nan;96114.81;5047139;28;20213;-60
2022/12/28 06:32:07;;;;;;;6.88;6.28;;;;;;;8.56;nan;96118.09;5046233;28;20208;-60
2022/12/28 06:34:34;;;;;;;7.55;6.10;;;;;;;8.47;nan;96124.06;5047383;28;20229;-60
2022/12/28 06:37:01;;;;;;;6.57;5.88;;;;;;;8.59;nan;96134.09;5047036;28;20240;-60
2022/12/28 06:39:29;;;;;;;6.68;6.10;;;;;;;8.65;nan;96144.19;5047782;28;20212;-60
2022/12/28 06:41:57;;;;;;;10.65;7.45;;;;;;;8.66;nan;96145.84;5044045;28;20232;-60
2022/12/28 06:44:23;;;;;;;7.88;6.72;;;;;;;8.77;nan;96149.13;5046623;28;20209;-60
2022/12/28 06:46:50;;;;;;;7.53;6.82;;;;;;;8.84;nan;96140.63;5046722;28;20728;-60
2022/12/28 06:49:17;;;;;;;6.68;5.70;;;;;;;8.79;nan;96132.22;5047731;28;20621;-60
2022/12/28 06:51:44;;;;;;;7.18;6.47;;;;;;;8.66;nan;96140.78;5047748;28;20208;-61
2022/12/28 06:54:11;;;;;;;6.95;6.15;;;;;;;8.66;nan;96148.38;5047471;28;20209;-60
2022/12/28 06:56:38;;;;;;;14.23;6.50;;;;;;;8.76;nan;96141.53;5046827;28;20207;-60
2022/12/28 06:59:07;;;;;;;8.18;6.85;;;;;;;8.78;nan;96147.44;5046632;28;20291;-60
2022/12/28 07:01:35;;;;;;;9.43;6.65;;;;;;;8.80;nan;96150.81;5047218;28;20198;-59
2022/12/28 07:04:04;;;;;;;7.78;6.95;;;;;;;8.84;nan;96129.66;5047701;28;20215;-60
2022/12/28 07:06:35;;;;;;;8.13;6.55;;;;;;;8.87;nan;96134.69;5046815;28;20213;-60
2022/12/28 07:09:04;;;;;;;13.10;7.78;;;;;;;8.94;nan;96135.44;5047774;28;20602;-62
2022/12/28 07:11:31;;;;;;;7.30;6.60;;;;;;;9.06;nan;96140.41;5047205;28;20213;-62
2022/12/28 07:13:59;;;;;;;7.53;6.55;;;;;;;9.18;nan;96146.16;5046564;28;20198;-62
2022/12/28 07:16:29;;;;;;;8.35;6.68;;;;;;;9.23;nan;96148.66;5046073;28;20205;-60
2022/12/28 07:18:56;;;;;;;9.70;6.93;;;;;;;9.19;nan;96147.84;5046021;28;20209;-61
2022/12/28 07:21:24;;;;;;;8.88;7.53;;;;;;;9.35;nan;96143.47;5046524;28;20237;-60
2022/12/28 07:23:52;;;;;;;17.65;11.40;;;;;;;9.50;nan;96142.44;5045892;28;20582;-61
2022/12/28 07:26:24;;;;;;;12.07;8.73;;;;;;;9.64;nan;96140.59;5048343;28;20201;-60
2022/12/28 07:28:53;;;;;;;17.23;10.07;;;;;;;9.79;nan;96140.38;5051157;28;20760;-60
2022/12/28 07:31:21;;;;;;;41.55;14.85;;;;;;;9.90;nan;96147.81;5051734;28;20201;-61
2022/12/28 07:33:50;;;;;;;17.88;10.35;;;;;;;10.18;nan;96154.19;5050054;28;20229;-60
2022/12/28 07:36:20;;;;;;;11.15;8.73;;;;;;;10.42;nan;96152.19;5049756;28;20212;-64
2022/12/28 07:38:47;;;;;;;20.02;11.82;;;;;;;10.62;nan;96156.97;5050526;28;20210;-60
2022/12/28 07:41:16;;;;;;;30.00;15.95;;;;;;;10.87;nan;96151.44;5050816;28;20206;-60
2022/12/28 07:43:43;;;;;;;20.30;11.80;;;;;;;11.09;nan;96146.81;5049707;28;20798;-60
2022/12/28 07:46:12;;;;;;;16.17;11.20;;;;;;;11.25;nan;96153.28;5050755;28;20298;-61
2022/12/28 07:48:40;;;;;;;35.30;18.05;;;;;;;11.41;nan;96158.91;5050295;28;20229;-61
2022/12/28 07:51:10;;;;;;;25.33;13.93;;;;;;;11.30;nan;96155.75;5050170;28;20570;-60
2022/12/28 07:53:37;;;;;;;24.58;15.02;;;;;;;11.20;nan;96160.16;5049567;28;20202;-62
2022/12/28 07:56:04;;;;;;;26.98;15.07;;;;;;;10.99;nan;96158.00;5050026;28;20695;-61
2022/12/28 07:58:31;;;;;;;16.17;10.43;;;;;;;10.85;nan;96154.88;5049546;28;20668;-61
2022/12/28 08:01:04;;;;;;;25.08;15.27;;;;;;;10.48;nan;96147.00;5050352;28;20628;-60
2022/12/28 08:03:31;;;;;;;30.15;15.48;;;;;;;10.33;nan;96154.88;5049483;28;20209;-60
2022/12/28 08:06:03;;;;;;;22.90;11.35;;;;;;;10.12;nan;96128.91;5049593;28;20213;-61
2022/12/28 08:08:33;;;;;;;14.65;10.02;;;;;;;10.14;nan;96154.28;5046919;28;20232;-60
2022/12/28 08:11:02;;;;;;;6.72;6.07;;;;;;;10.02;nan;96160.38;5050619;28;20213;-61
2022/12/28 08:13:32;;;;;;;7.32;6.18;;;;;;;10.05;nan;96155.25;5050151;28;20296;-62
2022/12/28 08:15:58;;;;;;;8.57;5.47;;;;;;;10.05;nan;96154.41;5049254;28;20725;-60
2022/12/28 08:18:25;;;;;;;6.68;5.35;;;;;;;10.02;nan;96157.84;5048693;28;20202;-62
2022/12/28 08:20:53;;;;;;;6.35;5.72;;;;;;;9.92;nan;96151.19;5049465;28;20244;-61
2022/12/28 08:23:20;;;;;;;39.05;13.30;;;;;;;9.95;nan;96163.84;5050573;28;20197;-60
2022/12/28 08:25:48;;;;;;;46.22;17.77;;;;;;;9.89;nan;96166.50;5050429;28;20783;-60
2022/12/28 08:28:15;;;;;;;45.33;16.08;;;;;;;9.89;nan;96162.25;5049774;28;20229;-61
2022/12/28 08:30:42;;;;;;;25.25;11.90;;;;;;;9.86;nan;96162.28;5049478;28;20642;-60
2022/12/28 08:33:09;;;;;;;16.85;7.95;;;;;;;9.88;nan;96162.28;5049846;28;20211;-59
2022/12/28 08:35:36;;;;;;;12.98;7.68;;;;;;;9.83;nan;96164.03;5048764;28;20205;-62
2022/12/28 08:38:02;;;;;;;11.05;6.13;;;;;;;9.82;nan;96164.88;5049949;28;20273;-63
2022/12/28 08:40:29;;;;;;;7.00;6.05;;;;;;;9.82;nan;96167.41;5049049;28;20212;-58
2022/12/28 08:42:58;;;;;;;8.70;5.68;;;;;;;9.65;nan;96154.13;5048767;28;20213;-61
2022/12/28 08:45:25;;;;;;;6.03;5.50;;;;;;;9.62;nan;96166.84;5048090;28;20216;-62
2022/12/28 08:47:52;;;;;;;41.80;23.45;;;;;;;9.53;nan;96178.78;5048484;28;20209;-61
2022/12/28 08:50:20;;;;;;;9.57;6.93;;;;;;;9.63;nan;96163.44;5049034;28;20205;-60
2022/12/28 08:52:46;;;;;;;12.95;7.60;;;;;;;9.50;nan;96167.81;5049509;28;20221;-62
2022/12/28 08:55:13;;;;;;;10.30;6.68;;;;;;;9.45;nan;96164.47;5049575;28;20255;-61
2022/12/28 08:57:40;;;;;;;6.35;5.75;;;;;;;9.53;nan;96162.69;5049564;28;20202;-62
2022/12/28 09:00:10;;;;;;;33.78;18.15;;;;;;;9.52;nan;96150.88;5048997;28;20202;-61
2022/12/28 09:02:37;;;;;;;44.00;24.73;;;;;;;9.58;nan;96152.50;5048061;28;20212;-61
2022/12/28 09:05:04;;;;;;;15.93;9.70;;;;;;;9.76;nan;96149.72;5049454;28;20213;-60
2022/12/28 09:07:31;;;;;;;13.63;8.82;;;;;;;9.89;nan;96149.56;5049619;28;20214;-60
2022/12/28 09:09:57;;;;;;;17.30;8.88;;;;;;;9.92;nan;96146.09;5047826;28;20228;-60
2022/12/28 09:12:24;;;;;;;13.88;8.75;;;;;;;9.85;nan;96144.53;5049269;28;20210;-60
2022/12/28 09:14:51;;;;;;;15.90;8.68;;;;;;;9.80;nan;96131.06;5049323;28;20691;-60
2022/12/28 09:17:19;;;;;;;13.23;7.50;;;;;;;9.74;nan;96134.50;5049743;28;20292;-59
2022/12/28 09:19:46;;;;;;;12.15;7.70;;;;;;;9.63;nan;96140.59;5047239;28;20682;-61
2022/12/28 09:22:13;;;;;;;11.00;8.60;;;;;;;9.66;nan;96131.22;5047470;28;20241;-62
2022/12/28 09:24:40;;;;;;;8.35;7.38;;;;;;;9.62;nan;96131.31;5049007;28;20707;-61
2022/12/28 09:27:06;;;;;;;10.52;7.95;;;;;;;9.63;nan;96127.91;5048290;28;20218;-62
2022/12/28 09:29:33;;;;;;;10.15;7.13;;;;;;;9.71;nan;96126.09;5048217;28;20228;-64
2022/12/28 09:32:00;;;;;;;11.90;7.85;;;;;;;9.81;nan;96122.59;5048108;28;20314;-60
2022/12/28 09:34:29;;;;;;;13.82;8.05;;;;;;;9.95;nan;96125.75;5048259;28;20236;-60
2022/12/28 09:36:56;;;;;;;10.05;7.75;;;;;;;10.01;nan;96115.50;5049030;28;20214;-60
2022/12/28 09:39:23;;;;;;;9.52;7.18;;;;;;;10.15;nan;96108.50;5047907;28;20213;-60
2022/12/28 09:41:54;;;;;;;9.00;7.03;;;;;;;10.28;nan;96098.22;5047354;28;20287;-60
2022/12/28 09:44:45;;;;;;;7.60;6.90;;;;;;;10.34;nan;96103.19;5047933;28;20220;-61
2022/12/28 09:47:25;;;;;;;8.85;7.07;;;;;;;10.39;nan;96092.09;5043481;28;20202;-60
2022/12/28 09:50:02;;;;;;;8.23;6.32;;;;;;;10.46;nan;96090.28;5046963;28;20261;-61
2022/12/28 09:52:31;;;;;;;7.88;7.10;;;;;;;10.59;nan;96094.31;5047725;28;20666;-60
2022/12/28 09:55:07;;;;;;;16.13;10.45;;;;;;;10.68;nan;96089.03;5048489;28;20205;-60
2022/12/28 09:57:38;;;;;;;8.80;7.97;;;;;;;10.74;nan;96078.78;5048381;28;20231;-61
2022/12/28 10:00:15;;;;;;;13.82;6.30;;;;;;;10.70;nan;96082.22;5047004;28;20198;-60
2022/12/28 10:02:43;;;;;;;7.10;6.22;;;;;;;10.67;nan;96076.34;5046600;28;20647;-60
2022/12/28 10:05:12;;;;;;;9.70;5.18;;;;;;;10.63;nan;96075.59;5048217;28;20217;-59
2022/12/28 10:07:38;;;;;;;7.35;5.57;;;;;;;10.41;nan;96075.09;5047305;28;20209;-59
2022/12/28 10:10:06;;;;;;;9.75;6.55;;;;;;;10.45;nan;96061.50;5047127;28;20225;-60
2022/12/28 10:12:33;;;;;;;9.63;6.65;;;;;;;10.44;nan;96067.44;5048293;28;20631;-61
2022/12/28 10:15:00;;;;;;;9.63;6.35;;;;;;;10.51;nan;96065.63;5047536;28;20630;-60
2022/12/28 10:17:29;;;;;;;9.80;6.97;;;;;;;10.47;nan;96069.09;5047650;28;20205;-60
2022/12/28 10:19:58;;;;;;;7.18;5.25;;;;;;;10.41;nan;96064.09;5046732;28;20280;-60
2022/12/28 10:22:36;;;;;;;6.97;5.38;;;;;;;10.38;nan;96059.94;5047194;28;20769;-60
2022/12/28 10:25:11;;;;;;;6.40;5.82;;;;;;;10.44;nan;96064.06;5048408;28;20209;-60
2022/12/28 10:27:37;;;;;;;6.15;5.55;;;;;;;10.46;nan;96063.16;5047808;28;20208;-62
2022/12/28 10:30:14;;;;;;;6.60;5.88;;;;;;;10.45;nan;96050.47;5046552;28;20718;-62
2022/12/28 10:32:49;;;;;;;10.70;6.68;;;;;;;10.72;nan;96057.63;5047320;28;20300;-60
2022/12/28 10:35:27;;;;;;;8.85;5.47;;;;;;;10.69;nan;96060.22;5048072;28;20229;-61
2022/12/28 10:38:02;;;;;;;7.85;6.85;;;;;;;10.80;nan;96062.56;5047301;28;20201;-60
2022/12/28 10:40:32;;;;;;;10.63;6.55;;;;;;;10.87;nan;96049.72;5047401;28;21014;-60
2022/12/28 10:43:00;;;;;;;10.75;8.68;;;;;;;10.85;nan;96051.47;5046352;28;20547;-63
2022/12/28 10:45:35;;;;;;;6.80;6.10;;;;;;;10.78;nan;96054.97;5047064;28;20239;-60
2022/12/28 10:48:09;;;;;;;8.15;6.28;;;;;;;10.82;nan;96043.03;5048262;28;20201;-61
2022/12/28 10:50:46;;;;;;;6.20;5.60;;;;;;;10.88;nan;96050.56;5047506;28;20229;-60
2022/12/28 10:53:19;;;;;;;7.43;6.38;;;;;;;11.06;nan;96059.53;5047115;28;20209;-60
2022/12/28 10:55:46;;;;;;;8.43;6.80;;;;;;;11.14;nan;96057.66;5047944;28;20205;-60
2022/12/28 10:58:20;;;;;;;7.35;6.65;;;;;;;11.07;nan;96046.78;5047316;28;20566;-61
2022/12/28 11:00:54;;;;;;;7.93;6.78;;;;;;;11.10;nan;96046.72;5046553;28;20213;-61
2022/12/28 11:03:25;;;;;;;8.90;6.68;;;;;;;11.13;nan;96046.69;5047107;28;20209;-59
2022/12/28 11:06:08;;;;;;;8.25;6.88;;;;;;;11.05;nan;96057.88;5046367;28;20821;-60
2022/12/28 11:08:36;;;;;;;8.98;7.13;;;;;;;10.99;nan;96057.97;5046859;28;20212;-60
2022/12/28 11:11:03;;;;;;;7.63;6.68;;;;;;;11.01;nan;96067.25;5047693;28;20206;-60
2022/12/28 11:13:30;;;;;;;8.70;7.78;;;;;;;10.87;nan;96059.91;5047208;28;20220;-61
2022/12/28 11:15:56;;;;;;;10.07;7.80;;;;;;;10.77;nan;96055.84;5046485;28;20213;-61
2022/12/28 11:18:23;;;;;;;8.82;7.15;;;;;;;10.53;nan;96054.56;5046448;28;20205;-61
2022/12/28 11:20:53;;;;;;;9.65;7.10;;;;;;;10.55;nan;96059.63;5046413;28;20561;-60
2022/12/28 11:23:21;;;;;;;9.88;7.40;;;;;;;10.45;nan;96080.97;5047466;28;20208;-59
2022/12/28 11:25:50;;;;;;;6.57;5.85;;;;;;;10.41;nan;96075.09;5046356;28;20206;-60
2022/12/28 11:28:20;;;;;;;7.28;6.65;;;;;;;10.36;nan;96076.91;5047654;28;20212;-60
2022/12/28 11:30:47;;;;;;;9.25;7.32;;;;;;;10.21;nan;96072.06;5046996;28;20228;-60
2022/12/28 11:33:33;;;;;;;7.63;6.82;;;;;;;10.18;nan;96067.81;5047273;28;20233;-60
2022/12/28 11:36:01;;;;;;;10.15;6.85;;;;;;;10.22;nan;96074.56;5045477;28;20262;-60
2022/12/28 11:38:38;;;;;;;8.55;7.13;;;;;;;10.33;nan;96074.41;5046894;28;20206;-62
2022/12/28 11:41:09;;;;;;;8.07;7.18;;;;;;;10.31;nan;96076.13;5046584;28;20211;-59
2022/12/28 11:43:47;;;;;;;11.52;8.27;;;;;;;10.39;nan;96076.03;5047001;28;20225;-59
2022/12/28 11:46:42;;;;;;;19.73;14.10;;;;;;;10.35;nan;96070.16;5046809;28;20209;-58
2022/12/28 11:49:30;;;;;;;21.20;11.18;;;;;;;10.26;nan;96061.81;5045735;28;20718;-60
2022/12/28 11:52:42;;;;;;;23.27;15.68;;;;;;;10.17;nan;96057.69;5045888;28;20212;-59
2022/12/28 11:55:37;;;;;;;22.10;13.07;;;;;;;10.26;nan;96054.22;5045580;28;20209;-62
2022/12/28 11:58:44;;;;;;;11.05;7.50;;;;;;;10.36;nan;96056.59;5046974;28;20202;-58
2022/12/28 12:01:49;;;;;;;11.40;7.10;;;;;;;10.13;nan;96041.69;5046010;28;20209;-60
2022/12/28 12:04:45;;;;;;;12.10;8.65;;;;;;;9.94;nan;96036.91;5046210;28;20212;-61
2022/12/28 12:07:24;;;;;;;11.07;8.93;;;;;;;9.98;nan;96036.84;5045057;28;20212;-59
2022/12/28 12:10:29;;;;;;;11.73;10.02;;;;;;;9.96;nan;96035.19;5044528;28;20239;-60
2022/12/28 12:12:57;;;;;;;13.23;9.65;;;;;;;10.07;nan;96024.00;5048328;28;20236;-61
2022/12/28 12:15:32;;;;;;;14.57;10.45;;;;;;;10.20;nan;96025.50;5048914;28;20204;-61
2022/12/28 12:18:03;;;;;;;13.02;9.60;;;;;;;10.50;nan;96018.22;5048259;28;20705;-61
2022/12/28 12:20:52;;;;;;;10.18;8.70;;;;;;;10.41;nan;96023.44;5049414;28;20202;-60
2022/12/28 12:23:31;;;;;;;9.05;7.75;;;;;;;10.44;nan;96018.31;5050416;28;20341;-60
2022/12/28 12:26:00;;;;;;;9.98;7.45;;;;;;;10.40;nan;96014.13;5050252;28;20671;-61
2022/12/28 12:28:34;;;;;;;8.05;7.25;;;;;;;10.17;nan;96000.09;5049449;28;20209;-60
2022/12/28 12:31:04;;;;;;;11.07;6.90;;;;;;;10.13;nan;96005.28;5050026;28;20221;-60
2022/12/28 12:33:35;;;;;;;11.88;7.55;;;;;;;10.00;nan;96004.63;5050582;28;22803;-64